sensor_id;sensor_type;location;lat;lon;timestamp;P1;durP1;ratioP1;P2;durP2;ratioP2
79533;SDS011;68982;52.160;6.736;2023-04-24T00:00:30;7.47;;;4.90;;
79533;SDS011;68982;52.160;6.736;2023-04-24T00:02:56;6.22;;;4.63;;
79533;SDS011;68982;52.160;6.736;2023-04-24T00:05:22;6.00;;;4.20;;
79533;SDS011;68982;52.160;6.736;2023-04-24T00:07:48;5.78;;;4.13;;
79533;SDS011;68982;52.160;6.736;2023-04-24T00:10:14;6.53;;;4.22;;
79533;SDS011;68982;52.160;6.736;2023-04-24T00:12:39;6.00;;;4.15;;
79533;SDS011;68982;52.160;6.736;2023-04-24T00:15:05;6.00;;;4.30;;
79533;SDS011;68982;52.160;6.736;2023-04-24T00:17:31;7.72;;;4.55;;
79533;SDS011;68982;52.160;6.736;2023-04-24T00:19:56;6.13;;;3.92;;
79533;SDS011;68982;52.160;6.736;2023-04-24T00:22:25;7.03;;;4.72;;
79533;SDS011;68982;52.160;6.736;2023-04-24T00:24:51;6.15;;;4.65;;
79533;SDS011;68982;52.160;6.736;2023-04-24T00:27:17;7.05;;;4.70;;
79533;SDS011;68982;52.160;6.736;2023-04-24T00:29:42;7.63;;;5.20;;
79533;SDS011;68982;52.160;6.736;2023-04-24T00:32:07;6.77;;;4.13;;
79533;SDS011;68982;52.160;6.736;2023-04-24T00:34:33;6.97;;;5.00;;
79533;SDS011;68982;52.160;6.736;2023-04-24T00:36:58;8.70;;;5.20;;
79533;SDS011;68982;52.160;6.736;2023-04-24T00:39:23;10.47;;;6.13;;
79533;SDS011;68982;52.160;6.736;2023-04-24T00:41:49;10.83;;;5.17;;
79533;SDS011;68982;52.160;6.736;2023-04-24T00:44:15;9.88;;;5.85;;
79533;SDS011;68982;52.160;6.736;2023-04-24T00:46:41;7.88;;;5.57;;
79533;SDS011;68982;52.160;6.736;2023-04-24T00:49:07;8.63;;;6.22;;
79533;SDS011;68982;52.160;6.736;2023-04-24T00:51:32;8.77;;;5.97;;
79533;SDS011;68982;52.160;6.736;2023-04-24T00:53:59;8.45;;;5.38;;
79533;SDS011;68982;52.160;6.736;2023-04-24T00:56:26;9.30;;;6.55;;
79533;SDS011;68982;52.160;6.736;2023-04-24T00:58:52;8.48;;;6.38;;
79533;SDS011;68982;52.160;6.736;2023-04-24T01:01:21;9.85;;;6.50;;
79533;SDS011;68982;52.160;6.736;2023-04-24T01:03:47;10.77;;;5.97;;
79533;SDS011;68982;52.160;6.736;2023-04-24T01:06:15;9.38;;;6.45;;
79533;SDS011;68982;52.160;6.736;2023-04-24T01:08:41;8.98;;;6.28;;
79533;SDS011;68982;52.160;6.736;2023-04-24T01:11:08;10.07;;;6.25;;
79533;SDS011;68982;52.160;6.736;2023-04-24T01:13:33;11.13;;;6.47;;
79533;SDS011;68982;52.160;6.736;2023-04-24T01:15:59;7.78;;;6.07;;
79533;SDS011;68982;52.160;6.736;2023-04-24T01:18:25;9.20;;;6.47;;
79533;SDS011;68982;52.160;6.736;2023-04-24T01:20:53;9.13;;;6.20;;
79533;SDS011;68982;52.160;6.736;2023-04-24T01:23:21;8.85;;;5.38;;
79533;SDS011;68982;52.160;6.736;2023-04-24T01:25:47;8.77;;;5.88;;
79533;SDS011;68982;52.160;6.736;2023-04-24T01:28:14;7.40;;;5.15;;
79533;SDS011;68982;52.160;6.736;2023-04-24T01:30:39;8.25;;;4.97;;
79533;SDS011;68982;52.160;6.736;2023-04-24T01:33:07;8.55;;;4.90;;
79533;SDS011;68982;52.160;6.736;2023-04-24T01:35:32;7.53;;;4.50;;
79533;SDS011;68982;52.160;6.736;2023-04-24T01:37:58;5.50;;;4.10;;
79533;SDS011;68982;52.160;6.736;2023-04-24T01:40:23;5.67;;;4.43;;
79533;SDS011;68982;52.160;6.736;2023-04-24T01:42:48;7.97;;;4.63;;
79533;SDS011;68982;52.160;6.736;2023-04-24T01:45:14;6.68;;;4.88;;
79533;SDS011;68982;52.160;6.736;2023-04-24T01:47:39;7.65;;;4.88;;
79533;SDS011;68982;52.160;6.736;2023-04-24T01:50:05;7.35;;;4.93;;
79533;SDS011;68982;52.160;6.736;2023-04-24T01:52:31;7.88;;;5.18;;
79533;SDS011;68982;52.160;6.736;2023-04-24T01:55:01;8.00;;;5.18;;
79533;SDS011;68982;52.160;6.736;2023-04-24T01:57:26;8.43;;;5.85;;
79533;SDS011;68982;52.160;6.736;2023-04-24T01:59:52;9.30;;;5.60;;
79533;SDS011;68982;52.160;6.736;2023-04-24T02:02:17;10.03;;;5.53;;
79533;SDS011;68982;52.160;6.736;2023-04-24T02:04:43;10.68;;;5.97;;
79533;SDS011;68982;52.160;6.736;2023-04-24T02:07:08;9.70;;;6.35;;
79533;SDS011;68982;52.160;6.736;2023-04-24T02:09:33;11.20;;;6.75;;
79533;SDS011;68982;52.160;6.736;2023-04-24T02:11:59;9.60;;;6.40;;
79533;SDS011;68982;52.160;6.736;2023-04-24T02:14:25;11.32;;;6.63;;
79533;SDS011;68982;52.160;6.736;2023-04-24T02:16:50;10.63;;;6.60;;
79533;SDS011;68982;52.160;6.736;2023-04-24T02:19:16;9.93;;;6.93;;
79533;SDS011;68982;52.160;6.736;2023-04-24T02:21:41;11.43;;;7.97;;
79533;SDS011;68982;52.160;6.736;2023-04-24T02:24:06;11.55;;;8.18;;
79533;SDS011;68982;52.160;6.736;2023-04-24T02:26:32;12.63;;;8.13;;
79533;SDS011;68982;52.160;6.736;2023-04-24T02:28:57;16.77;;;8.97;;
79533;SDS011;68982;52.160;6.736;2023-04-24T02:31:22;12.17;;;7.97;;
79533;SDS011;68982;52.160;6.736;2023-04-24T02:33:48;11.20;;;8.13;;
79533;SDS011;68982;52.160;6.736;2023-04-24T02:36:13;13.88;;;8.43;;
79533;SDS011;68982;52.160;6.736;2023-04-24T02:38:39;15.50;;;8.50;;
79533;SDS011;68982;52.160;6.736;2023-04-24T02:41:04;13.23;;;8.25;;
79533;SDS011;68982;52.160;6.736;2023-04-24T02:43:31;12.25;;;8.32;;
79533;SDS011;68982;52.160;6.736;2023-04-24T02:45:57;10.73;;;7.82;;
79533;SDS011;68982;52.160;6.736;2023-04-24T02:48:22;13.27;;;8.93;;
79533;SDS011;68982;52.160;6.736;2023-04-24T02:50:48;11.98;;;8.32;;
79533;SDS011;68982;52.160;6.736;2023-04-24T02:53:14;11.45;;;7.93;;
79533;SDS011;68982;52.160;6.736;2023-04-24T02:55:39;12.90;;;8.52;;
79533;SDS011;68982;52.160;6.736;2023-04-24T02:58:04;11.98;;;8.73;;
79533;SDS011;68982;52.160;6.736;2023-04-24T03:00:30;16.10;;;8.52;;
79533;SDS011;68982;52.160;6.736;2023-04-24T03:02:56;12.82;;;8.30;;
79533;SDS011;68982;52.160;6.736;2023-04-24T03:05:21;14.38;;;9.20;;
79533;SDS011;68982;52.160;6.736;2023-04-24T03:07:47;13.45;;;8.40;;
79533;SDS011;68982;52.160;6.736;2023-04-24T03:10:12;11.98;;;8.10;;
79533;SDS011;68982;52.160;6.736;2023-04-24T03:12:38;14.63;;;9.23;;
79533;SDS011;68982;52.160;6.736;2023-04-24T03:15:03;13.85;;;8.77;;
79533;SDS011;68982;52.160;6.736;2023-04-24T03:17:29;18.33;;;9.85;;
79533;SDS011;68982;52.160;6.736;2023-04-24T03:19:55;12.98;;;8.57;;
79533;SDS011;68982;52.160;6.736;2023-04-24T03:22:20;13.30;;;8.82;;
79533;SDS011;68982;52.160;6.736;2023-04-24T03:24:45;16.97;;;9.93;;
79533;SDS011;68982;52.160;6.736;2023-04-24T03:27:11;12.53;;;8.70;;
79533;SDS011;68982;52.160;6.736;2023-04-24T03:29:36;16.50;;;9.55;;
79533;SDS011;68982;52.160;6.736;2023-04-24T03:32:01;13.10;;;8.55;;
79533;SDS011;68982;52.160;6.736;2023-04-24T03:34:27;12.93;;;8.68;;
79533;SDS011;68982;52.160;6.736;2023-04-24T03:36:53;14.52;;;8.65;;
79533;SDS011;68982;52.160;6.736;2023-04-24T03:39:18;15.52;;;9.80;;
79533;SDS011;68982;52.160;6.736;2023-04-24T03:41:43;16.60;;;9.30;;
79533;SDS011;68982;52.160;6.736;2023-04-24T03:44:09;13.43;;;9.15;;
79533;SDS011;68982;52.160;6.736;2023-04-24T03:46:34;14.30;;;9.35;;
79533;SDS011;68982;52.160;6.736;2023-04-24T03:49:00;16.40;;;10.20;;
79533;SDS011;68982;52.160;6.736;2023-04-24T03:51:25;15.15;;;9.88;;
79533;SDS011;68982;52.160;6.736;2023-04-24T03:53:52;16.52;;;10.82;;
79533;SDS011;68982;52.160;6.736;2023-04-24T03:56:18;18.53;;;10.53;;
79533;SDS011;68982;52.160;6.736;2023-04-24T03:58:43;18.77;;;11.38;;
79533;SDS011;68982;52.160;6.736;2023-04-24T04:01:08;20.93;;;10.97;;
79533;SDS011;68982;52.160;6.736;2023-04-24T04:03:33;19.50;;;10.67;;
79533;SDS011;68982;52.160;6.736;2023-04-24T04:05:59;18.50;;;11.60;;
79533;SDS011;68982;52.160;6.736;2023-04-24T04:08:24;23.30;;;12.52;;
79533;SDS011;68982;52.160;6.736;2023-04-24T04:10:50;19.58;;;11.63;;
79533;SDS011;68982;52.160;6.736;2023-04-24T04:13:15;19.27;;;12.10;;
79533;SDS011;68982;52.160;6.736;2023-04-24T04:15:40;19.67;;;12.20;;
79533;SDS011;68982;52.160;6.736;2023-04-24T04:18:06;23.20;;;11.85;;
79533;SDS011;68982;52.160;6.736;2023-04-24T04:20:31;18.93;;;12.60;;
79533;SDS011;68982;52.160;6.736;2023-04-24T04:22:56;19.93;;;12.53;;
79533;SDS011;68982;52.160;6.736;2023-04-24T04:25:22;22.17;;;12.37;;
79533;SDS011;68982;52.160;6.736;2023-04-24T04:27:48;21.45;;;13.07;;
79533;SDS011;68982;52.160;6.736;2023-04-24T04:30:13;21.98;;;14.57;;
79533;SDS011;68982;52.160;6.736;2023-04-24T04:32:39;22.40;;;12.88;;
79533;SDS011;68982;52.160;6.736;2023-04-24T04:35:04;23.45;;;13.52;;
79533;SDS011;68982;52.160;6.736;2023-04-24T04:37:30;26.13;;;13.07;;
79533;SDS011;68982;52.160;6.736;2023-04-24T04:39:59;23.40;;;13.43;;
79533;SDS011;68982;52.160;6.736;2023-04-24T04:42:27;23.20;;;13.55;;
79533;SDS011;68982;52.160;6.736;2023-04-24T04:44:53;22.52;;;13.60;;
79533;SDS011;68982;52.160;6.736;2023-04-24T04:47:19;23.10;;;13.00;;
79533;SDS011;68982;52.160;6.736;2023-04-24T04:49:47;21.60;;;12.27;;
79533;SDS011;68982;52.160;6.736;2023-04-24T04:52:13;22.95;;;12.20;;
79533;SDS011;68982;52.160;6.736;2023-04-24T04:54:38;21.27;;;12.43;;
79533;SDS011;68982;52.160;6.736;2023-04-24T04:57:03;23.07;;;12.70;;
79533;SDS011;68982;52.160;6.736;2023-04-24T04:59:29;22.70;;;13.60;;
79533;SDS011;68982;52.160;6.736;2023-04-24T05:01:54;20.60;;;12.07;;
79533;SDS011;68982;52.160;6.736;2023-04-24T05:04:20;22.85;;;12.20;;
79533;SDS011;68982;52.160;6.736;2023-04-24T05:06:45;21.77;;;13.37;;
79533;SDS011;68982;52.160;6.736;2023-04-24T05:09:12;21.52;;;13.63;;
79533;SDS011;68982;52.160;6.736;2023-04-24T05:11:37;22.00;;;13.73;;
79533;SDS011;68982;52.160;6.736;2023-04-24T05:14:02;20.65;;;12.90;;
79533;SDS011;68982;52.160;6.736;2023-04-24T05:16:28;22.08;;;12.75;;
79533;SDS011;68982;52.160;6.736;2023-04-24T05:18:53;25.58;;;12.93;;
79533;SDS011;68982;52.160;6.736;2023-04-24T05:21:18;23.33;;;13.23;;
79533;SDS011;68982;52.160;6.736;2023-04-24T05:23:44;24.48;;;14.88;;
79533;SDS011;68982;52.160;6.736;2023-04-24T05:26:09;22.13;;;12.93;;
79533;SDS011;68982;52.160;6.736;2023-04-24T05:28:35;20.52;;;11.80;;
79533;SDS011;68982;52.160;6.736;2023-04-24T05:31:01;20.23;;;12.43;;
79533;SDS011;68982;52.160;6.736;2023-04-24T05:33:27;21.13;;;12.02;;
79533;SDS011;68982;52.160;6.736;2023-04-24T05:35:52;18.80;;;12.10;;
79533;SDS011;68982;52.160;6.736;2023-04-24T05:38:18;22.48;;;11.55;;
79533;SDS011;68982;52.160;6.736;2023-04-24T05:40:44;18.90;;;11.82;;
79533;SDS011;68982;52.160;6.736;2023-04-24T05:43:10;19.40;;;11.35;;
79533;SDS011;68982;52.160;6.736;2023-04-24T05:45:35;21.15;;;12.00;;
79533;SDS011;68982;52.160;6.736;2023-04-24T05:48:01;21.73;;;12.40;;
79533;SDS011;68982;52.160;6.736;2023-04-24T05:50:27;21.33;;;12.30;;
79533;SDS011;68982;52.160;6.736;2023-04-24T05:52:52;19.85;;;11.68;;
79533;SDS011;68982;52.160;6.736;2023-04-24T05:55:18;19.55;;;12.35;;
79533;SDS011;68982;52.160;6.736;2023-04-24T05:57:43;20.30;;;13.38;;
79533;SDS011;68982;52.160;6.736;2023-04-24T06:00:09;24.08;;;14.00;;
79533;SDS011;68982;52.160;6.736;2023-04-24T06:02:37;21.17;;;12.63;;
79533;SDS011;68982;52.160;6.736;2023-04-24T06:05:02;19.90;;;12.25;;
79533;SDS011;68982;52.160;6.736;2023-04-24T06:07:29;19.20;;;12.00;;
79533;SDS011;68982;52.160;6.736;2023-04-24T06:09:55;23.98;;;12.63;;
79533;SDS011;68982;52.160;6.736;2023-04-24T06:12:22;19.55;;;12.35;;
79533;SDS011;68982;52.160;6.736;2023-04-24T06:14:47;18.23;;;11.87;;
79533;SDS011;68982;52.160;6.736;2023-04-24T06:17:13;21.13;;;12.55;;
79533;SDS011;68982;52.160;6.736;2023-04-24T06:19:38;18.45;;;11.13;;
79533;SDS011;68982;52.160;6.736;2023-04-24T06:22:04;17.95;;;11.40;;
79533;SDS011;68982;52.160;6.736;2023-04-24T06:24:29;18.30;;;11.35;;
79533;SDS011;68982;52.160;6.736;2023-04-24T06:26:55;19.52;;;11.50;;
79533;SDS011;68982;52.160;6.736;2023-04-24T06:29:22;20.08;;;11.70;;
79533;SDS011;68982;52.160;6.736;2023-04-24T06:31:47;20.67;;;11.00;;
79533;SDS011;68982;52.160;6.736;2023-04-24T06:34:12;18.93;;;11.00;;
79533;SDS011;68982;52.160;6.736;2023-04-24T06:36:38;18.53;;;11.23;;
79533;SDS011;68982;52.160;6.736;2023-04-24T06:39:03;17.80;;;11.10;;
79533;SDS011;68982;52.160;6.736;2023-04-24T06:41:29;20.58;;;10.80;;
79533;SDS011;68982;52.160;6.736;2023-04-24T06:43:54;14.40;;;9.18;;
79533;SDS011;68982;52.160;6.736;2023-04-24T06:46:20;14.27;;;9.52;;
79533;SDS011;68982;52.160;6.736;2023-04-24T06:48:48;15.60;;;9.93;;
79533;SDS011;68982;52.160;6.736;2023-04-24T06:51:14;16.10;;;9.48;;
79533;SDS011;68982;52.160;6.736;2023-04-24T06:53:39;14.17;;;9.20;;
79533;SDS011;68982;52.160;6.736;2023-04-24T06:56:04;13.95;;;9.32;;
79533;SDS011;68982;52.160;6.736;2023-04-24T06:58:30;14.13;;;8.80;;
79533;SDS011;68982;52.160;6.736;2023-04-24T07:00:55;17.15;;;8.52;;
79533;SDS011;68982;52.160;6.736;2023-04-24T07:03:21;13.73;;;8.27;;
79533;SDS011;68982;52.160;6.736;2023-04-24T07:05:46;14.47;;;8.27;;
79533;SDS011;68982;52.160;6.736;2023-04-24T07:08:12;14.63;;;8.65;;
79533;SDS011;68982;52.160;6.736;2023-04-24T07:10:38;11.10;;;6.93;;
79533;SDS011;68982;52.160;6.736;2023-04-24T07:13:04;12.85;;;8.38;;
79533;SDS011;68982;52.160;6.736;2023-04-24T07:15:29;14.73;;;7.72;;
79533;SDS011;68982;52.160;6.736;2023-04-24T07:17:55;13.13;;;7.65;;
79533;SDS011;68982;52.160;6.736;2023-04-24T07:20:21;13.13;;;8.10;;
79533;SDS011;68982;52.160;6.736;2023-04-24T07:22:46;13.18;;;7.13;;
79533;SDS011;68982;52.160;6.736;2023-04-24T07:25:13;12.43;;;7.65;;
79533;SDS011;68982;52.160;6.736;2023-04-24T07:27:38;12.65;;;8.25;;
79533;SDS011;68982;52.160;6.736;2023-04-24T07:30:03;11.67;;;7.70;;
79533;SDS011;68982;52.160;6.736;2023-04-24T07:32:29;15.18;;;8.15;;
79533;SDS011;68982;52.160;6.736;2023-04-24T07:34:55;13.20;;;8.05;;
79533;SDS011;68982;52.160;6.736;2023-04-24T07:37:20;12.43;;;7.90;;
79533;SDS011;68982;52.160;6.736;2023-04-24T07:39:46;12.77;;;7.65;;
79533;SDS011;68982;52.160;6.736;2023-04-24T07:42:11;11.85;;;7.70;;
79533;SDS011;68982;52.160;6.736;2023-04-24T07:44:36;11.00;;;7.07;;
79533;SDS011;68982;52.160;6.736;2023-04-24T07:47:02;10.37;;;6.90;;
79533;SDS011;68982;52.160;6.736;2023-04-24T07:49:27;10.23;;;6.90;;
79533;SDS011;68982;52.160;6.736;2023-04-24T07:51:52;11.60;;;8.15;;
79533;SDS011;68982;52.160;6.736;2023-04-24T07:54:18;11.90;;;6.93;;
79533;SDS011;68982;52.160;6.736;2023-04-24T07:56:43;11.03;;;7.43;;
79533;SDS011;68982;52.160;6.736;2023-04-24T07:59:10;10.90;;;6.97;;
79533;SDS011;68982;52.160;6.736;2023-04-24T08:01:35;9.52;;;6.25;;
79533;SDS011;68982;52.160;6.736;2023-04-24T08:04:01;10.38;;;6.65;;
79533;SDS011;68982;52.160;6.736;2023-04-24T08:06:27;8.20;;;5.03;;
79533;SDS011;68982;52.160;6.736;2023-04-24T08:08:56;9.30;;;5.40;;
79533;SDS011;68982;52.160;6.736;2023-04-24T08:11:22;9.95;;;5.05;;
79533;SDS011;68982;52.160;6.736;2023-04-24T08:13:47;9.53;;;5.57;;
79533;SDS011;68982;52.160;6.736;2023-04-24T08:16:13;8.07;;;4.97;;
79533;SDS011;68982;52.160;6.736;2023-04-24T08:18:38;9.25;;;5.03;;
79533;SDS011;68982;52.160;6.736;2023-04-24T08:21:04;10.55;;;5.28;;
79533;SDS011;68982;52.160;6.736;2023-04-24T08:23:29;11.48;;;5.85;;
79533;SDS011;68982;52.160;6.736;2023-04-24T08:25:55;9.45;;;5.47;;
79533;SDS011;68982;52.160;6.736;2023-04-24T08:28:20;8.65;;;5.32;;
79533;SDS011;68982;52.160;6.736;2023-04-24T08:30:46;8.38;;;5.32;;
79533;SDS011;68982;52.160;6.736;2023-04-24T08:33:19;9.05;;;4.88;;
79533;SDS011;68982;52.160;6.736;2023-04-24T08:35:45;7.90;;;5.03;;
79533;SDS011;68982;52.160;6.736;2023-04-24T08:38:10;7.35;;;4.95;;
79533;SDS011;68982;52.160;6.736;2023-04-24T08:40:36;7.90;;;5.17;;
79533;SDS011;68982;52.160;6.736;2023-04-24T08:43:01;7.25;;;4.47;;
79533;SDS011;68982;52.160;6.736;2023-04-24T08:45:28;7.22;;;5.22;;
79533;SDS011;68982;52.160;6.736;2023-04-24T08:47:54;7.72;;;5.00;;
79533;SDS011;68982;52.160;6.736;2023-04-24T08:50:20;7.78;;;4.93;;
79533;SDS011;68982;52.160;6.736;2023-04-24T08:52:46;9.00;;;4.53;;
79533;SDS011;68982;52.160;6.736;2023-04-24T08:55:14;7.95;;;3.92;;
79533;SDS011;68982;52.160;6.736;2023-04-24T08:57:41;6.43;;;3.70;;
79533;SDS011;68982;52.160;6.736;2023-04-24T09:00:09;5.70;;;3.10;;
79533;SDS011;68982;52.160;6.736;2023-04-24T09:02:35;5.55;;;3.05;;
79533;SDS011;68982;52.160;6.736;2023-04-24T09:05:01;5.53;;;3.17;;
79533;SDS011;68982;52.160;6.736;2023-04-24T09:07:28;5.13;;;3.10;;
79533;SDS011;68982;52.160;6.736;2023-04-24T09:09:58;3.85;;;2.42;;
79533;SDS011;68982;52.160;6.736;2023-04-24T09:12:24;3.72;;;2.58;;
79533;SDS011;68982;52.160;6.736;2023-04-24T09:14:49;4.65;;;2.42;;
79533;SDS011;68982;52.160;6.736;2023-04-24T09:17:16;6.10;;;2.60;;
79533;SDS011;68982;52.160;6.736;2023-04-24T09:19:41;5.60;;;2.95;;
79533;SDS011;68982;52.160;6.736;2023-04-24T09:22:07;6.20;;;4.90;;
79533;SDS011;68982;52.160;6.736;2023-04-24T09:24:33;7.45;;;4.90;;
79533;SDS011;68982;52.160;6.736;2023-04-24T09:26:59;9.77;;;5.95;;
79533;SDS011;68982;52.160;6.736;2023-04-24T09:29:28;8.48;;;5.88;;
79533;SDS011;68982;52.160;6.736;2023-04-24T09:31:54;11.85;;;6.15;;
79533;SDS011;68982;52.160;6.736;2023-04-24T09:34:23;9.80;;;6.47;;
79533;SDS011;68982;52.160;6.736;2023-04-24T09:36:50;12.00;;;7.15;;
79533;SDS011;68982;52.160;6.736;2023-04-24T09:39:16;12.65;;;7.53;;
79533;SDS011;68982;52.160;6.736;2023-04-24T09:41:43;10.88;;;7.10;;
79533;SDS011;68982;52.160;6.736;2023-04-24T09:44:34;12.93;;;7.75;;
79533;SDS011;68982;52.160;6.736;2023-04-24T09:46:59;15.35;;;8.60;;
79533;SDS011;68982;52.160;6.736;2023-04-24T09:49:28;13.32;;;7.80;;
79533;SDS011;68982;52.160;6.736;2023-04-24T09:52:05;9.80;;;6.25;;
79533;SDS011;68982;52.160;6.736;2023-04-24T09:54:31;15.00;;;8.10;;
79533;SDS011;68982;52.160;6.736;2023-04-24T09:56:58;14.93;;;8.50;;
79533;SDS011;68982;52.160;6.736;2023-04-24T09:59:25;10.82;;;6.75;;
79533;SDS011;68982;52.160;6.736;2023-04-24T10:01:50;14.02;;;7.15;;
79533;SDS011;68982;52.160;6.736;2023-04-24T10:04:18;12.98;;;7.82;;
79533;SDS011;68982;52.160;6.736;2023-04-24T10:06:45;11.75;;;6.80;;
79533;SDS011;68982;52.160;6.736;2023-04-24T10:09:11;10.65;;;6.88;;
79533;SDS011;68982;52.160;6.736;2023-04-24T10:11:40;13.88;;;7.82;;
79533;SDS011;68982;52.160;6.736;2023-04-24T10:14:07;14.65;;;8.18;;
79533;SDS011;68982;52.160;6.736;2023-04-24T10:16:35;12.43;;;8.02;;
79533;SDS011;68982;52.160;6.736;2023-04-24T10:19:02;11.70;;;6.65;;
79533;SDS011;68982;52.160;6.736;2023-04-24T10:21:28;10.20;;;5.72;;
79533;SDS011;68982;52.160;6.736;2023-04-24T10:23:54;10.98;;;7.28;;
79533;SDS011;68982;52.160;6.736;2023-04-24T10:26:20;16.13;;;6.55;;
79533;SDS011;68982;52.160;6.736;2023-04-24T10:28:47;12.18;;;5.80;;
79533;SDS011;68982;52.160;6.736;2023-04-24T10:31:13;8.98;;;5.53;;
79533;SDS011;68982;52.160;6.736;2023-04-24T10:33:40;12.60;;;5.65;;
79533;SDS011;68982;52.160;6.736;2023-04-24T10:36:07;7.25;;;4.32;;
79533;SDS011;68982;52.160;6.736;2023-04-24T10:38:34;8.68;;;4.68;;
79533;SDS011;68982;52.160;6.736;2023-04-24T10:41:08;8.32;;;5.38;;
79533;SDS011;68982;52.160;6.736;2023-04-24T10:43:39;9.98;;;5.07;;
79533;SDS011;68982;52.160;6.736;2023-04-24T10:46:05;10.55;;;5.25;;
79533;SDS011;68982;52.160;6.736;2023-04-24T10:48:31;14.63;;;5.35;;
79533;SDS011;68982;52.160;6.736;2023-04-24T10:50:57;7.43;;;4.70;;
79533;SDS011;68982;52.160;6.736;2023-04-24T10:53:24;8.35;;;4.35;;
79533;SDS011;68982;52.160;6.736;2023-04-24T10:55:57;10.52;;;4.53;;
79533;SDS011;68982;52.160;6.736;2023-04-24T11:01:26;8.55;;;4.68;;
79533;SDS011;68982;52.160;6.736;2023-04-24T11:03:57;7.93;;;3.58;;
79533;SDS011;68982;52.160;6.736;2023-04-24T11:06:29;6.22;;;3.28;;
79533;SDS011;68982;52.160;6.736;2023-04-24T11:09:06;6.43;;;3.10;;
79533;SDS011;68982;52.160;6.736;2023-04-24T11:11:37;8.85;;;3.05;;
79533;SDS011;68982;52.160;6.736;2023-04-24T11:14:08;6.70;;;3.40;;
79533;SDS011;68982;52.160;6.736;2023-04-24T11:19:23;12.32;;;3.92;;
79533;SDS011;68982;52.160;6.736;2023-04-24T11:22:03;11.45;;;4.20;;
79533;SDS011;68982;52.160;6.736;2023-04-24T11:24:48;10.20;;;3.85;;
79533;SDS011;68982;52.160;6.736;2023-04-24T11:27:17;9.52;;;3.60;;
79533;SDS011;68982;52.160;6.736;2023-04-24T11:34:47;6.83;;;4.07;;
79533;SDS011;68982;52.160;6.736;2023-04-24T11:37:14;8.85;;;3.75;;
79533;SDS011;68982;52.160;6.736;2023-04-24T11:39:40;9.82;;;4.28;;
79533;SDS011;68982;52.160;6.736;2023-04-24T11:42:05;9.75;;;4.53;;
79533;SDS011;68982;52.160;6.736;2023-04-24T11:44:33;8.68;;;4.15;;
79533;SDS011;68982;52.160;6.736;2023-04-24T11:46:59;8.15;;;3.67;;
79533;SDS011;68982;52.160;6.736;2023-04-24T11:49:24;11.18;;;3.78;;
79533;SDS011;68982;52.160;6.736;2023-04-24T11:51:50;8.10;;;3.43;;
79533;SDS011;68982;52.160;6.736;2023-04-24T11:54:20;5.78;;;3.35;;
79533;SDS011;68982;52.160;6.736;2023-04-24T11:56:46;9.55;;;3.28;;
79533;SDS011;68982;52.160;6.736;2023-04-24T11:59:12;6.97;;;3.55;;
79533;SDS011;68982;52.160;6.736;2023-04-24T12:01:44;3.93;;;2.97;;
79533;SDS011;68982;52.160;6.736;2023-04-24T12:04:10;8.43;;;3.20;;
79533;SDS011;68982;52.160;6.736;2023-04-24T12:06:36;5.32;;;3.38;;
79533;SDS011;68982;52.160;6.736;2023-04-24T12:09:02;5.70;;;2.83;;
79533;SDS011;68982;52.160;6.736;2023-04-24T12:11:27;9.70;;;3.20;;
79533;SDS011;68982;52.160;6.736;2023-04-24T12:13:53;6.33;;;3.10;;
79533;SDS011;68982;52.160;6.736;2023-04-24T12:16:18;6.75;;;2.83;;
79533;SDS011;68982;52.160;6.736;2023-04-24T12:18:44;7.93;;;2.78;;
79533;SDS011;68982;52.160;6.736;2023-04-24T12:21:21;6.78;;;2.72;;
79533;SDS011;68982;52.160;6.736;2023-04-24T12:23:47;7.85;;;3.35;;
79533;SDS011;68982;52.160;6.736;2023-04-24T12:26:19;6.50;;;3.20;;
79533;SDS011;68982;52.160;6.736;2023-04-24T12:28:47;7.28;;;2.88;;
79533;SDS011;68982;52.160;6.736;2023-04-24T12:31:16;7.10;;;3.10;;
79533;SDS011;68982;52.160;6.736;2023-04-24T12:33:42;5.57;;;3.30;;
79533;SDS011;68982;52.160;6.736;2023-04-24T12:36:09;6.97;;;2.95;;
79533;SDS011;68982;52.160;6.736;2023-04-24T12:38:35;8.45;;;3.25;;
79533;SDS011;68982;52.160;6.736;2023-04-24T12:41:06;12.32;;;3.60;;
79533;SDS011;68982;52.160;6.736;2023-04-24T12:43:33;4.07;;;2.70;;
79533;SDS011;68982;52.160;6.736;2023-04-24T12:45:59;7.30;;;3.13;;
79533;SDS011;68982;52.160;6.736;2023-04-24T12:48:27;8.27;;;3.35;;
79533;SDS011;68982;52.160;6.736;2023-04-24T12:50:53;9.77;;;2.63;;
79533;SDS011;68982;52.160;6.736;2023-04-24T12:53:20;7.43;;;2.95;;
79533;SDS011;68982;52.160;6.736;2023-04-24T12:55:45;7.20;;;2.75;;
79533;SDS011;68982;52.160;6.736;2023-04-24T12:58:17;5.93;;;2.80;;
79533;SDS011;68982;52.160;6.736;2023-04-24T13:00:42;4.28;;;2.15;;
79533;SDS011;68982;52.160;6.736;2023-04-24T13:03:08;3.28;;;1.80;;
79533;SDS011;68982;52.160;6.736;2023-04-24T13:05:36;2.22;;;1.67;;
79533;SDS011;68982;52.160;6.736;2023-04-24T13:08:01;5.63;;;1.57;;
79533;SDS011;68982;52.160;6.736;2023-04-24T13:10:27;2.73;;;1.50;;
79533;SDS011;68982;52.160;6.736;2023-04-24T13:12:52;3.42;;;2.00;;
79533;SDS011;68982;52.160;6.736;2023-04-24T13:15:18;4.20;;;1.65;;
79533;SDS011;68982;52.160;6.736;2023-04-24T13:17:43;6.20;;;2.03;;
79533;SDS011;68982;52.160;6.736;2023-04-24T13:20:09;3.50;;;2.10;;
79533;SDS011;68982;52.160;6.736;2023-04-24T13:22:35;3.92;;;1.98;;
79533;SDS011;68982;52.160;6.736;2023-04-24T13:25:01;4.32;;;2.20;;
79533;SDS011;68982;52.160;6.736;2023-04-24T13:27:26;2.60;;;1.88;;
79533;SDS011;68982;52.160;6.736;2023-04-24T13:29:51;4.03;;;2.37;;
79533;SDS011;68982;52.160;6.736;2023-04-24T13:32:17;2.90;;;1.83;;
79533;SDS011;68982;52.160;6.736;2023-04-24T13:34:42;5.40;;;2.05;;
79533;SDS011;68982;52.160;6.736;2023-04-24T13:37:08;4.50;;;2.20;;
79533;SDS011;68982;52.160;6.736;2023-04-24T13:39:33;4.87;;;2.10;;
79533;SDS011;68982;52.160;6.736;2023-04-24T13:41:58;4.63;;;2.38;;
79533;SDS011;68982;52.160;6.736;2023-04-24T13:44:24;5.25;;;2.45;;
79533;SDS011;68982;52.160;6.736;2023-04-24T13:46:52;5.72;;;1.83;;
79533;SDS011;68982;52.160;6.736;2023-04-24T13:49:19;3.63;;;2.30;;
79533;SDS011;68982;52.160;6.736;2023-04-24T13:51:45;4.85;;;1.90;;
79533;SDS011;68982;52.160;6.736;2023-04-24T13:54:11;4.35;;;2.13;;
79533;SDS011;68982;52.160;6.736;2023-04-24T13:56:36;6.97;;;2.40;;
79533;SDS011;68982;52.160;6.736;2023-04-24T13:59:02;2.70;;;1.73;;
79533;SDS011;68982;52.160;6.736;2023-04-24T14:01:27;4.20;;;2.00;;
79533;SDS011;68982;52.160;6.736;2023-04-24T14:03:53;3.80;;;1.92;;
79533;SDS011;68982;52.160;6.736;2023-04-24T14:06:20;3.95;;;1.60;;
79533;SDS011;68982;52.160;6.736;2023-04-24T14:08:46;4.93;;;1.90;;
79533;SDS011;68982;52.160;6.736;2023-04-24T14:11:11;2.75;;;1.77;;
79533;SDS011;68982;52.160;6.736;2023-04-24T14:13:37;3.00;;;2.00;;
79533;SDS011;68982;52.160;6.736;2023-04-24T14:16:03;2.92;;;1.95;;
79533;SDS011;68982;52.160;6.736;2023-04-24T14:18:29;3.40;;;1.80;;
79533;SDS011;68982;52.160;6.736;2023-04-24T14:20:54;3.47;;;1.98;;
79533;SDS011;68982;52.160;6.736;2023-04-24T14:23:20;4.88;;;1.90;;
79533;SDS011;68982;52.160;6.736;2023-04-24T14:25:45;4.80;;;2.20;;
79533;SDS011;68982;52.160;6.736;2023-04-24T14:28:11;3.60;;;1.77;;
79533;SDS011;68982;52.160;6.736;2023-04-24T14:30:36;4.07;;;1.98;;
79533;SDS011;68982;52.160;6.736;2023-04-24T14:33:02;3.90;;;2.15;;
79533;SDS011;68982;52.160;6.736;2023-04-24T14:35:28;3.33;;;1.90;;
79533;SDS011;68982;52.160;6.736;2023-04-24T14:37:56;4.25;;;1.90;;
79533;SDS011;68982;52.160;6.736;2023-04-24T14:40:21;3.53;;;1.90;;
79533;SDS011;68982;52.160;6.736;2023-04-24T14:42:47;5.53;;;2.63;;